sensor_id;sensor_type;location;lat;lon;timestamp;P1;durP1;ratioP1;P2;durP2;ratioP2
25810;SDS011;13645;52.460;13.910;2022-12-18T00:02:12;40.63;;;17.03;;
25810;SDS011;13645;52.460;13.910;2022-12-18T00:04:39;45.07;;;18.20;;
25810;SDS011;13645;52.460;13.910;2022-12-18T00:07:06;43.20;;;17.20;;
25810;SDS011;13645;52.460;13.910;2022-12-18T00:09:33;37.87;;;15.77;;
25810;SDS011;13645;52.460;13.910;2022-12-18T00:12:05;46.97;;;16.30;;
25810;SDS011;13645;52.460;13.910;2022-12-18T00:14:40;46.50;;;16.87;;
25810;SDS011;13645;52.460;13.910;2022-12-18T00:17:08;45.13;;;16.77;;
25810;SDS011;13645;52.460;13.910;2022-12-18T00:19:35;43.37;;;16.30;;
25810;SDS011;13645;52.460;13.910;2022-12-18T00:22:01;43.67;;;16.70;;
25810;SDS011;13645;52.460;13.910;2022-12-18T00:24:28;41.93;;;18.03;;
25810;SDS011;13645;52.460;13.910;2022-12-18T00:26:55;52.67;;;18.93;;
25810;SDS011;13645;52.460;13.910;2022-12-18T00:29:22;49.13;;;18.33;;
25810;SDS011;13645;52.460;13.910;2022-12-18T00:31:48;46.77;;;17.50;;
25810;SDS011;13645;52.460;13.910;2022-12-18T00:34:15;48.43;;;18.17;;
25810;SDS011;13645;52.460;13.910;2022-12-18T00:36:42;53.20;;;18.93;;
25810;SDS011;13645;52.460;13.910;2022-12-18T00:39:09;53.33;;;19.27;;
25810;SDS011;13645;52.460;13.910;2022-12-18T00:41:38;50.87;;;19.10;;
25810;SDS011;13645;52.460;13.910;2022-12-18T00:44:23;51.33;;;18.30;;
25810;SDS011;13645;52.460;13.910;2022-12-18T00:46:50;53.00;;;18.27;;
25810;SDS011;13645;52.460;13.910;2022-12-18T00:49:17;51.53;;;18.50;;
25810;SDS011;13645;52.460;13.910;2022-12-18T00:51:45;47.00;;;18.40;;
25810;SDS011;13645;52.460;13.910;2022-12-18T00:54:12;46.03;;;16.93;;
25810;SDS011;13645;52.460;13.910;2022-12-18T00:56:39;45.07;;;17.23;;
25810;SDS011;13645;52.460;13.910;2022-12-18T00:59:14;51.07;;;17.70;;
25810;SDS011;13645;52.460;13.910;2022-12-18T01:01:41;48.97;;;18.80;;
25810;SDS011;13645;52.460;13.910;2022-12-18T01:04:08;41.03;;;17.17;;
25810;SDS011;13645;52.460;13.910;2022-12-18T01:06:35;57.03;;;16.63;;
25810;SDS011;13645;52.460;13.910;2022-12-18T01:09:02;45.67;;;17.80;;
25810;SDS011;13645;52.460;13.910;2022-12-18T01:11:29;44.63;;;16.77;;
25810;SDS011;13645;52.460;13.910;2022-12-18T01:13:56;48.83;;;18.10;;
25810;SDS011;13645;52.460;13.910;2022-12-18T01:16:23;41.67;;;16.77;;
25810;SDS011;13645;52.460;13.910;2022-12-18T01:18:53;50.63;;;17.87;;
25810;SDS011;13645;52.460;13.910;2022-12-18T01:21:21;51.83;;;17.80;;
25810;SDS011;13645;52.460;13.910;2022-12-18T01:23:53;44.10;;;16.33;;
25810;SDS011;13645;52.460;13.910;2022-12-18T01:26:21;42.17;;;16.67;;
25810;SDS011;13645;52.460;13.910;2022-12-18T01:28:49;54.57;;;18.47;;
25810;SDS011;13645;52.460;13.910;2022-12-18T01:31:17;48.03;;;17.70;;
25810;SDS011;13645;52.460;13.910;2022-12-18T01:33:44;48.63;;;18.63;;
25810;SDS011;13645;52.460;13.910;2022-12-18T01:36:15;52.47;;;19.77;;
25810;SDS011;13645;52.460;13.910;2022-12-18T01:38:52;47.10;;;17.60;;
25810;SDS011;13645;52.460;13.910;2022-12-18T01:41:21;49.77;;;18.17;;
25810;SDS011;13645;52.460;13.910;2022-12-18T01:43:56;51.33;;;18.87;;
25810;SDS011;13645;52.460;13.910;2022-12-18T01:46:24;54.47;;;18.23;;
25810;SDS011;13645;52.460;13.910;2022-12-18T01:48:54;58.43;;;18.77;;
25810;SDS011;13645;52.460;13.910;2022-12-18T01:51:23;48.30;;;19.77;;
25810;SDS011;13645;52.460;13.910;2022-12-18T01:53:51;53.73;;;18.83;;
25810;SDS011;13645;52.460;13.910;2022-12-18T01:56:19;53.13;;;18.80;;
25810;SDS011;13645;52.460;13.910;2022-12-18T02:01:43;49.67;;;19.67;;
25810;SDS011;13645;52.460;13.910;2022-12-18T02:04:18;60.37;;;20.13;;
25810;SDS011;13645;52.460;13.910;2022-12-18T02:06:57;52.60;;;19.13;;
25810;SDS011;13645;52.460;13.910;2022-12-18T02:09:42;52.70;;;19.00;;
25810;SDS011;13645;52.460;13.910;2022-12-18T02:12:25;52.47;;;18.90;;
25810;SDS011;13645;52.460;13.910;2022-12-18T02:15:09;56.70;;;19.50;;
25810;SDS011;13645;52.460;13.910;2022-12-18T02:20:36;47.97;;;17.20;;
25810;SDS011;13645;52.460;13.910;2022-12-18T02:26:16;40.23;;;16.03;;
25810;SDS011;13645;52.460;13.910;2022-12-18T02:28:53;44.87;;;18.53;;
25810;SDS011;13645;52.460;13.910;2022-12-18T02:31:26;50.73;;;18.00;;
25810;SDS011;13645;52.460;13.910;2022-12-18T02:33:56;46.97;;;17.63;;
25810;SDS011;13645;52.460;13.910;2022-12-18T02:36:27;49.63;;;19.10;;
25810;SDS011;13645;52.460;13.910;2022-12-18T02:38:55;46.83;;;18.37;;
25810;SDS011;13645;52.460;13.910;2022-12-18T02:41:25;45.20;;;18.00;;
25810;SDS011;13645;52.460;13.910;2022-12-18T02:43:58;48.33;;;17.60;;
25810;SDS011;13645;52.460;13.910;2022-12-18T02:52:10;51.20;;;19.50;;
25810;SDS011;13645;52.460;13.910;2022-12-18T03:00:10;40.10;;;15.23;;
25810;SDS011;13645;52.460;13.910;2022-12-18T03:03:04;48.13;;;17.60;;
25810;SDS011;13645;52.460;13.910;2022-12-18T03:08:19;49.20;;;15.73;;
25810;SDS011;13645;52.460;13.910;2022-12-18T03:10:57;50.63;;;18.00;;
25810;SDS011;13645;52.460;13.910;2022-12-18T03:13:28;50.10;;;18.83;;
25810;SDS011;13645;52.460;13.910;2022-12-18T03:15:59;53.20;;;17.53;;
25810;SDS011;13645;52.460;13.910;2022-12-18T03:18:32;41.80;;;17.40;;
25810;SDS011;13645;52.460;13.910;2022-12-18T03:21:05;53.50;;;18.33;;
25810;SDS011;13645;52.460;13.910;2022-12-18T03:23:34;48.63;;;18.80;;
25810;SDS011;13645;52.460;13.910;2022-12-18T03:26:07;47.27;;;17.17;;
25810;SDS011;13645;52.460;13.910;2022-12-18T03:28:39;45.20;;;17.47;;
25810;SDS011;13645;52.460;13.910;2022-12-18T03:31:10;52.70;;;17.43;;
25810;SDS011;13645;52.460;13.910;2022-12-18T03:36:11;45.33;;;17.03;;
25810;SDS011;13645;52.460;13.910;2022-12-18T03:38:38;55.43;;;19.53;;
25810;SDS011;13645;52.460;13.910;2022-12-18T03:46:30;63.67;;;20.90;;
25810;SDS011;13645;52.460;13.910;2022-12-18T03:49:09;55.77;;;20.57;;
25810;SDS011;13645;52.460;13.910;2022-12-18T03:51:40;60.30;;;21.57;;
25810;SDS011;13645;52.460;13.910;2022-12-18T03:54:16;52.03;;;20.17;;
25810;SDS011;13645;52.460;13.910;2022-12-18T03:56:45;58.63;;;20.03;;
25810;SDS011;13645;52.460;13.910;2022-12-18T03:59:16;55.20;;;20.40;;
25810;SDS011;13645;52.460;13.910;2022-12-18T04:01:48;48.47;;;18.50;;
25810;SDS011;13645;52.460;13.910;2022-12-18T04:04:17;51.87;;;18.63;;
25810;SDS011;13645;52.460;13.910;2022-12-18T04:06:46;45.90;;;17.60;;
25810;SDS011;13645;52.460;13.910;2022-12-18T04:09:14;46.17;;;18.47;;
25810;SDS011;13645;52.460;13.910;2022-12-18T04:11:41;49.30;;;16.27;;
25810;SDS011;13645;52.460;13.910;2022-12-18T04:14:11;42.90;;;17.47;;
25810;SDS011;13645;52.460;13.910;2022-12-18T04:16:43;50.43;;;19.37;;
25810;SDS011;13645;52.460;13.910;2022-12-18T04:19:10;50.00;;;18.10;;
25810;SDS011;13645;52.460;13.910;2022-12-18T04:21:36;46.97;;;18.47;;
25810;SDS011;13645;52.460;13.910;2022-12-18T04:24:03;48.87;;;17.83;;
25810;SDS011;13645;52.460;13.910;2022-12-18T04:26:31;49.10;;;18.27;;
25810;SDS011;13645;52.460;13.910;2022-12-18T04:28:57;51.23;;;17.93;;
25810;SDS011;13645;52.460;13.910;2022-12-18T04:31:24;48.27;;;18.23;;
25810;SDS011;13645;52.460;13.910;2022-12-18T04:33:51;43.23;;;19.37;;
25810;SDS011;13645;52.460;13.910;2022-12-18T04:36:17;51.13;;;18.90;;
25810;SDS011;13645;52.460;13.910;2022-12-18T04:38:44;46.70;;;18.23;;
25810;SDS011;13645;52.460;13.910;2022-12-18T04:41:11;50.23;;;19.20;;
25810;SDS011;13645;52.460;13.910;2022-12-18T04:43:39;45.93;;;18.50;;
25810;SDS011;13645;52.460;13.910;2022-12-18T04:46:07;45.10;;;17.87;;
25810;SDS011;13645;52.460;13.910;2022-12-18T04:48:34;53.50;;;18.47;;
25810;SDS011;13645;52.460;13.910;2022-12-18T04:51:01;45.63;;;16.47;;
25810;SDS011;13645;52.460;13.910;2022-12-18T04:53:29;40.77;;;16.33;;
25810;SDS011;13645;52.460;13.910;2022-12-18T04:56:03;37.20;;;15.57;;
25810;SDS011;13645;52.460;13.910;2022-12-18T05:00:56;35.90;;;14.23;;
25810;SDS011;13645;52.460;13.910;2022-12-18T05:03:23;37.07;;;14.70;;
25810;SDS011;13645;52.460;13.910;2022-12-18T05:05:50;44.20;;;15.37;;
25810;SDS011;13645;52.460;13.910;2022-12-18T05:08:17;38.50;;;14.90;;
25810;SDS011;13645;52.460;13.910;2022-12-18T05:10:45;42.50;;;15.33;;
25810;SDS011;13645;52.460;13.910;2022-12-18T05:13:11;39.50;;;15.83;;
25810;SDS011;13645;52.460;13.910;2022-12-18T05:15:38;45.47;;;16.40;;
25810;SDS011;13645;52.460;13.910;2022-12-18T05:18:05;43.30;;;16.13;;
25810;SDS011;13645;52.460;13.910;2022-12-18T05:20:32;44.57;;;16.87;;
25810;SDS011;13645;52.460;13.910;2022-12-18T05:22:58;40.10;;;15.30;;
25810;SDS011;13645;52.460;13.910;2022-12-18T05:25:26;35.90;;;15.37;;
25810;SDS011;13645;52.460;13.910;2022-12-18T05:27:52;43.47;;;17.30;;
25810;SDS011;13645;52.460;13.910;2022-12-18T05:30:19;43.23;;;16.37;;
25810;SDS011;13645;52.460;13.910;2022-12-18T05:32:46;39.70;;;16.20;;
25810;SDS011;13645;52.460;13.910;2022-12-18T05:35:13;40.00;;;15.67;;
25810;SDS011;13645;52.460;13.910;2022-12-18T05:37:39;42.87;;;16.47;;
25810;SDS011;13645;52.460;13.910;2022-12-18T05:40:08;35.73;;;14.50;;
25810;SDS011;13645;52.460;13.910;2022-12-18T05:42:36;36.87;;;14.70;;
25810;SDS011;13645;52.460;13.910;2022-12-18T05:45:03;38.03;;;15.13;;
25810;SDS011;13645;52.460;13.910;2022-12-18T05:47:31;35.77;;;14.53;;
25810;SDS011;13645;52.460;13.910;2022-12-18T05:49:58;39.10;;;15.33;;
25810;SDS011;13645;52.460;13.910;2022-12-18T05:52:24;38.13;;;15.57;;
25810;SDS011;13645;52.460;13.910;2022-12-18T05:54:51;39.17;;;15.60;;
25810;SDS011;13645;52.460;13.910;2022-12-18T05:57:18;38.97;;;14.33;;
25810;SDS011;13645;52.460;13.910;2022-12-18T05:59:44;40.97;;;14.83;;
25810;SDS011;13645;52.460;13.910;2022-12-18T06:02:11;35.73;;;13.90;;
25810;SDS011;13645;52.460;13.910;2022-12-18T06:04:38;43.73;;;15.80;;
25810;SDS011;13645;52.460;13.910;2022-12-18T06:07:05;42.10;;;15.60;;
25810;SDS011;13645;52.460;13.910;2022-12-18T06:09:31;43.23;;;15.03;;
25810;SDS011;13645;52.460;13.910;2022-12-18T06:11:58;39.83;;;15.63;;
25810;SDS011;13645;52.460;13.910;2022-12-18T06:14:25;43.00;;;15.53;;
25810;SDS011;13645;52.460;13.910;2022-12-18T06:16:51;42.87;;;15.57;;
25810;SDS011;13645;52.460;13.910;2022-12-18T06:19:18;41.27;;;14.93;;
25810;SDS011;13645;52.460;13.910;2022-12-18T06:21:46;44.00;;;15.87;;
25810;SDS011;13645;52.460;13.910;2022-12-18T06:24:12;40.53;;;15.20;;
25810;SDS011;13645;52.460;13.910;2022-12-18T06:26:39;51.87;;;18.70;;
25810;SDS011;13645;52.460;13.910;2022-12-18T06:29:06;48.30;;;16.70;;
25810;SDS011;13645;52.460;13.910;2022-12-18T06:31:33;45.63;;;17.00;;
25810;SDS011;13645;52.460;13.910;2022-12-18T06:34:02;45.00;;;16.40;;
25810;SDS011;13645;52.460;13.910;2022-12-18T06:36:30;51.40;;;17.37;;
25810;SDS011;13645;52.460;13.910;2022-12-18T06:38:57;46.33;;;17.70;;
25810;SDS011;13645;52.460;13.910;2022-12-18T06:41:24;44.20;;;16.93;;
25810;SDS011;13645;52.460;13.910;2022-12-18T06:43:50;44.23;;;16.53;;
25810;SDS011;13645;52.460;13.910;2022-12-18T06:46:22;56.50;;;21.07;;
25810;SDS011;13645;52.460;13.910;2022-12-18T06:48:49;49.23;;;18.70;;
25810;SDS011;13645;52.460;13.910;2022-12-18T06:51:17;49.73;;;19.37;;
25810;SDS011;13645;52.460;13.910;2022-12-18T06:53:45;55.00;;;18.07;;
25810;SDS011;13645;52.460;13.910;2022-12-18T06:56:12;46.83;;;18.33;;
25810;SDS011;13645;52.460;13.910;2022-12-18T06:58:39;49.03;;;19.37;;
25810;SDS011;13645;52.460;13.910;2022-12-18T07:01:07;44.37;;;17.00;;
25810;SDS011;13645;52.460;13.910;2022-12-18T07:03:35;46.77;;;17.30;;
25810;SDS011;13645;52.460;13.910;2022-12-18T07:06:03;56.53;;;17.97;;
25810;SDS011;13645;52.460;13.910;2022-12-18T07:08:30;49.30;;;16.90;;
25810;SDS011;13645;52.460;13.910;2022-12-18T07:10:57;58.63;;;19.03;;
25810;SDS011;13645;52.460;13.910;2022-12-18T07:13:24;53.53;;;18.47;;
25810;SDS011;13645;52.460;13.910;2022-12-18T07:15:51;51.83;;;17.33;;
25810;SDS011;13645;52.460;13.910;2022-12-18T07:18:18;53.23;;;17.67;;
25810;SDS011;13645;52.460;13.910;2022-12-18T07:20:44;55.97;;;18.83;;
25810;SDS011;13645;52.460;13.910;2022-12-18T07:23:12;62.10;;;18.93;;
25810;SDS011;13645;52.460;13.910;2022-12-18T07:25:39;57.83;;;18.43;;
25810;SDS011;13645;52.460;13.910;2022-12-18T07:28:06;61.27;;;20.00;;
25810;SDS011;13645;52.460;13.910;2022-12-18T07:30:39;53.10;;;19.57;;
25810;SDS011;13645;52.460;13.910;2022-12-18T07:33:07;56.00;;;18.43;;
25810;SDS011;13645;52.460;13.910;2022-12-18T07:35:33;57.20;;;19.00;;
25810;SDS011;13645;52.460;13.910;2022-12-18T07:38:00;72.23;;;27.00;;
25810;SDS011;13645;52.460;13.910;2022-12-18T07:40:27;62.63;;;20.47;;
25810;SDS011;13645;52.460;13.910;2022-12-18T07:42:54;61.63;;;18.77;;
25810;SDS011;13645;52.460;13.910;2022-12-18T07:45:20;59.70;;;19.93;;
25810;SDS011;13645;52.460;13.910;2022-12-18T07:47:47;60.60;;;19.10;;
25810;SDS011;13645;52.460;13.910;2022-12-18T07:50:14;60.60;;;19.10;;
25810;SDS011;13645;52.460;13.910;2022-12-18T07:52:40;55.07;;;18.93;;
25810;SDS011;13645;52.460;13.910;2022-12-18T07:55:07;58.97;;;19.13;;
25810;SDS011;13645;52.460;13.910;2022-12-18T07:57:34;61.73;;;18.13;;
25810;SDS011;13645;52.460;13.910;2022-12-18T08:00:21;55.87;;;18.53;;
25810;SDS011;13645;52.460;13.910;2022-12-18T08:02:48;66.23;;;20.07;;
25810;SDS011;13645;52.460;13.910;2022-12-18T08:05:15;57.70;;;18.63;;
25810;SDS011;13645;52.460;13.910;2022-12-18T08:07:42;57.83;;;19.37;;
25810;SDS011;13645;52.460;13.910;2022-12-18T08:10:08;58.67;;;18.87;;
25810;SDS011;13645;52.460;13.910;2022-12-18T08:12:35;63.90;;;20.60;;
25810;SDS011;13645;52.460;13.910;2022-12-18T08:15:02;60.90;;;19.80;;
25810;SDS011;13645;52.460;13.910;2022-12-18T08:17:30;63.27;;;21.30;;
25810;SDS011;13645;52.460;13.910;2022-12-18T08:19:56;57.50;;;18.83;;
25810;SDS011;13645;52.460;13.910;2022-12-18T08:22:23;61.87;;;19.77;;
25810;SDS011;13645;52.460;13.910;2022-12-18T08:24:50;55.47;;;19.80;;
25810;SDS011;13645;52.460;13.910;2022-12-18T08:27:17;60.43;;;19.70;;
25810;SDS011;13645;52.460;13.910;2022-12-18T08:29:57;49.20;;;17.80;;
25810;SDS011;13645;52.460;13.910;2022-12-18T08:32:24;53.33;;;18.07;;
25810;SDS011;13645;52.460;13.910;2022-12-18T08:34:53;52.00;;;18.50;;
25810;SDS011;13645;52.460;13.910;2022-12-18T08:37:19;47.73;;;16.70;;
25810;SDS011;13645;52.460;13.910;2022-12-18T08:39:46;52.73;;;18.63;;
25810;SDS011;13645;52.460;13.910;2022-12-18T08:42:13;47.07;;;18.00;;
25810;SDS011;13645;52.460;13.910;2022-12-18T08:44:58;51.23;;;17.67;;
25810;SDS011;13645;52.460;13.910;2022-12-18T08:47:25;44.67;;;16.53;;
25810;SDS011;13645;52.460;13.910;2022-12-18T08:49:52;50.63;;;18.30;;
25810;SDS011;13645;52.460;13.910;2022-12-18T08:52:18;48.27;;;17.07;;
25810;SDS011;13645;52.460;13.910;2022-12-18T08:54:45;49.40;;;17.80;;
25810;SDS011;13645;52.460;13.910;2022-12-18T08:57:12;44.63;;;16.53;;
25810;SDS011;13645;52.460;13.910;2022-12-18T08:59:38;51.80;;;19.03;;
25810;SDS011;13645;52.460;13.910;2022-12-18T09:02:05;48.93;;;17.77;;
25810;SDS011;13645;52.460;13.910;2022-12-18T09:04:32;51.13;;;17.93;;
25810;SDS011;13645;52.460;13.910;2022-12-18T09:06:59;47.60;;;16.63;;
25810;SDS011;13645;52.460;13.910;2022-12-18T09:09:25;54.23;;;21.53;;
25810;SDS011;13645;52.460;13.910;2022-12-18T09:11:52;43.50;;;16.00;;
25810;SDS011;13645;52.460;13.910;2022-12-18T09:14:19;44.97;;;17.90;;
25810;SDS011;13645;52.460;13.910;2022-12-18T09:16:45;37.97;;;14.17;;
25810;SDS011;13645;52.460;13.910;2022-12-18T09:19:12;36.90;;;13.97;;
25810;SDS011;13645;52.460;13.910;2022-12-18T09:21:39;35.23;;;14.40;;
25810;SDS011;13645;52.460;13.910;2022-12-18T09:24:13;39.22;;;14.30;;
25810;SDS011;13645;52.460;13.910;2022-12-18T09:26:40;34.27;;;13.87;;
25810;SDS011;13645;52.460;13.910;2022-12-18T09:29:12;38.53;;;13.87;;
25810;SDS011;13645;52.460;13.910;2022-12-18T09:31:41;39.87;;;14.57;;
25810;SDS011;13645;52.460;13.910;2022-12-18T09:34:07;35.07;;;15.03;;
25810;SDS011;13645;52.460;13.910;2022-12-18T09:36:34;33.03;;;14.27;;
25810;SDS011;13645;52.460;13.910;2022-12-18T09:39:02;43.20;;;15.90;;
25810;SDS011;13645;52.460;13.910;2022-12-18T09:47:15;42.03;;;15.97;;
25810;SDS011;13645;52.460;13.910;2022-12-18T09:49:47;38.60;;;15.43;;
25810;SDS011;13645;52.460;13.910;2022-12-18T09:55:03;45.03;;;17.57;;
25810;SDS011;13645;52.460;13.910;2022-12-18T09:57:42;49.00;;;16.73;;
25810;SDS011;13645;52.460;13.910;2022-12-18T10:00:23;44.67;;;17.23;;
25810;SDS011;13645;52.460;13.910;2022-12-18T10:02:51;43.20;;;15.10;;
25810;SDS011;13645;52.460;13.910;2022-12-18T10:13:57;47.87;;;17.93;;
25810;SDS011;13645;52.460;13.910;2022-12-18T10:16:58;34.57;;;14.43;;
25810;SDS011;13645;52.460;13.910;2022-12-18T10:19:50;46.90;;;17.83;;
25810;SDS011;13645;52.460;13.910;2022-12-18T10:27:30;47.10;;;17.27;;
25810;SDS011;13645;52.460;13.910;2022-12-18T10:29:58;49.00;;;18.60;;
25810;SDS011;13645;52.460;13.910;2022-12-18T10:32:28;45.43;;;17.50;;
25810;SDS011;13645;52.460;13.910;2022-12-18T10:34:57;54.77;;;19.93;;
25810;SDS011;13645;52.460;13.910;2022-12-18T10:37:27;48.57;;;19.17;;
25810;SDS011;13645;52.460;13.910;2022-12-18T10:42:47;49.00;;;19.77;;
25810;SDS011;13645;52.460;13.910;2022-12-18T10:45:29;49.13;;;18.50;;
25810;SDS011;13645;52.460;13.910;2022-12-18T10:47:56;42.40;;;17.47;;
25810;SDS011;13645;52.460;13.910;2022-12-18T10:53:18;46.33;;;18.57;;
25810;SDS011;13645;52.460;13.910;2022-12-18T10:55:47;43.90;;;17.73;;
25810;SDS011;13645;52.460;13.910;2022-12-18T10:58:26;41.70;;;16.17;;
25810;SDS011;13645;52.460;13.910;2022-12-18T11:03:44;38.80;;;15.50;;
25810;SDS011;13645;52.460;13.910;2022-12-18T11:06:15;47.17;;;18.00;;
25810;SDS011;13645;52.460;13.910;2022-12-18T11:08:46;44.43;;;18.27;;
25810;SDS011;13645;52.460;13.910;2022-12-18T11:11:33;44.70;;;18.13;;
25810;SDS011;13645;52.460;13.910;2022-12-18T11:16:34;44.70;;;17.67;;
25810;SDS011;13645;52.460;13.910;2022-12-18T11:19:30;47.53;;;19.43;;
25810;SDS011;13645;52.460;13.910;2022-12-18T11:22:02;50.70;;;18.30;;
25810;SDS011;13645;52.460;13.910;2022-12-18T11:24:50;47.45;;;18.85;;
25810;SDS011;13645;52.460;13.910;2022-12-18T11:27:46;46.37;;;17.40;;
25810;SDS011;13645;52.460;13.910;2022-12-18T11:35:35;50.97;;;17.87;;
25810;SDS011;13645;52.460;13.910;2022-12-18T11:38:25;39.20;;;16.00;;
25810;SDS011;13645;52.460;13.910;2022-12-18T11:41:21;34.57;;;14.80;;
25810;SDS011;13645;52.460;13.910;2022-12-18T11:43:50;43.27;;;16.27;;
25810;SDS011;13645;52.460;13.910;2022-12-18T11:46:26;37.57;;;16.60;;
25810;SDS011;13645;52.460;13.910;2022-12-18T11:49:01;44.30;;;16.27;;
25810;SDS011;13645;52.460;13.910;2022-12-18T11:51:55;40.60;;;17.10;;
25810;SDS011;13645;52.460;13.910;2022-12-18T11:54:27;37.50;;;14.45;;
25810;SDS011;13645;52.460;13.910;2022-12-18T12:00:03;38.57;;;14.87;;
25810;SDS011;13645;52.460;13.910;2022-12-18T12:03:00;37.80;;;15.60;;
25810;SDS011;13645;52.460;13.910;2022-12-18T12:08:47;47.47;;;19.63;;
25810;SDS011;13645;52.460;13.910;2022-12-18T12:22:10;76.80;;;25.77;;
25810;SDS011;13645;52.460;13.910;2022-12-18T12:24:57;112.73;;;39.13;;
25810;SDS011;13645;52.460;13.910;2022-12-18T12:33:28;122.33;;;43.20;;
25810;SDS011;13645;52.460;13.910;2022-12-18T12:36:09;59.53;;;24.27;;
25810;SDS011;13645;52.460;13.910;2022-12-18T12:39:01;49.83;;;19.40;;
25810;SDS011;13645;52.460;13.910;2022-12-18T12:41:33;31.83;;;13.50;;
25810;SDS011;13645;52.460;13.910;2022-12-18T12:44:24;39.87;;;17.07;;
25810;SDS011;13645;52.460;13.910;2022-12-18T12:46:57;41.23;;;17.93;;
25810;SDS011;13645;52.460;13.910;2022-12-18T12:49:31;45.87;;;18.87;;
25810;SDS011;13645;52.460;13.910;2022-12-18T12:55:02;57.20;;;23.43;;
25810;SDS011;13645;52.460;13.910;2022-12-18T12:57:40;50.77;;;19.90;;
25810;SDS011;13645;52.460;13.910;2022-12-18T13:00:16;48.22;;;19.05;;
25810;SDS011;13645;52.460;13.910;2022-12-18T13:05:49;43.80;;;16.57;;
25810;SDS011;13645;52.460;13.910;2022-12-18T13:08:28;44.30;;;16.97;;
25810;SDS011;13645;52.460;13.910;2022-12-18T13:11:00;40.57;;;16.90;;
25810;SDS011;13645;52.460;13.910;2022-12-18T13:16:21;43.57;;;16.97;;
25810;SDS011;13645;52.460;13.910;2022-12-18T13:18:50;48.27;;;17.47;;
25810;SDS011;13645;52.460;13.910;2022-12-18T13:21:29;43.80;;;17.57;;
25810;SDS011;13645;52.460;13.910;2022-12-18T13:26:56;43.77;;;16.90;;
25810;SDS011;13645;52.460;13.910;2022-12-18T13:32:24;41.80;;;17.17;;
25810;SDS011;13645;52.460;13.910;2022-12-18T13:37:52;39.23;;;16.60;;
25810;SDS011;13645;52.460;13.910;2022-12-18T13:40:38;35.25;;;16.60;;
25810;SDS011;13645;52.460;13.910;2022-12-18T13:43:20;36.87;;;16.70;;
25810;SDS011;13645;52.460;13.910;2022-12-18T13:48:32;46.47;;;17.30;;
25810;SDS011;13645;52.460;13.910;2022-12-18T13:51:08;39.37;;;18.73;;
25810;SDS011;13645;52.460;13.910;2022-12-18T13:53:43;42.97;;;17.90;;
25810;SDS011;13645;52.460;13.910;2022-12-18T13:56:17;39.93;;;17.17;;
25810;SDS011;13645;52.460;13.910;2022-12-18T13:59:08;38.13;;;16.45;;
25810;SDS011;13645;52.460;13.910;2022-12-18T14:01:46;37.77;;;16.53;;
25810;SDS011;13645;52.460;13.910;2022-12-18T14:06:46;45.90;;;17.33;;
25810;SDS011;13645;52.460;13.910;2022-12-18T14:09:21;34.00;;;16.70;;
25810;SDS011;13645;52.460;13.910;2022-12-18T14:11:52;34.93;;;15.83;;
25810;SDS011;13645;52.460;13.910;2022-12-18T14:14:45;35.50;;;15.07;;
25810;SDS011;13645;52.460;13.910;2022-12-18T14:17:18;31.77;;;15.07;;
25810;SDS011;13645;52.460;13.910;2022-12-18T14:19:47;41.80;;;16.80;;
25810;SDS011;13645;52.460;13.910;2022-12-18T14:22:20;29.67;;;14.13;;
25810;SDS011;13645;52.460;13.910;2022-12-18T14:27:42;29.83;;;13.83;;
25810;SDS011;13645;52.460;13.910;2022-12-18T14:33:05;33.23;;;14.43;;
25810;SDS011;13645;52.460;13.910;2022-12-18T14:35:37;35.10;;;16.27;;
25810;SDS011;13645;52.460;13.910;2022-12-18T14:38:26;38.03;;;16.27;;
25810;SDS011;13645;52.460;13.910;2022-12-18T14:41:00;35.23;;;17.43;;
25810;SDS011;13645;52.460;13.910;2022-12-18T14:43:35;36.47;;;16.10;;
25810;SDS011;13645;52.460;13.910;2022-12-18T14:46:04;41.58;;;18.05;;
25810;SDS011;13645;52.460;13.910;2022-12-18T14:48:51;38.67;;;16.97;;
25810;SDS011;13645;52.460;13.910;2022-12-18T14:53:46;35.83;;;16.47;;
25810;SDS011;13645;52.460;13.910;2022-12-18T14:58:54;39.57;;;17.53;;
25810;SDS011;13645;52.460;13.910;2022-12-18T15:01:27;40.10;;;17.03;;
25810;SDS011;13645;52.460;13.910;2022-12-18T15:03:57;37.87;;;17.43;;
25810;SDS011;13645;52.460;13.910;2022-12-18T15:06:35;34.63;;;16.87;;
25810;SDS011;13645;52.460;13.910;2022-12-18T15:09:25;35.63;;;15.67;;
25810;SDS011;13645;52.460;13.910;2022-12-18T15:11:59;39.10;;;15.80;;
25810;SDS011;13645;52.460;13.910;2022-12-18T15:14:34;36.57;;;16.60;;
25810;SDS011;13645;52.460;13.910;2022-12-18T15:17:16;31.47;;;15.83;;
25810;SDS011;13645;52.460;13.910;2022-12-18T15:19:46;31.10;;;13.93;;
25810;SDS011;13645;52.460;13.910;2022-12-18T15:22:21;33.93;;;14.83;;
25810;SDS011;13645;52.460;13.910;2022-12-18T15:24:51;33.00;;;15.37;;
25810;SDS011;13645;52.460;13.910;2022-12-18T15:27:29;38.57;;;15.93;;
25810;SDS011;13645;52.460;13.910;2022-12-18T15:32:38;36.23;;;15.77;;
25810;SDS011;13645;52.460;13.910;2022-12-18T15:37:42;39.73;;;15.27;;
25810;SDS011;13645;52.460;13.910;2022-12-18T15:40:17;33.77;;;16.97;;
25810;SDS011;13645;52.460;13.910;2022-12-18T15:42:48;31.57;;;15.63;;
25810;SDS011;13645;52.460;13.910;2022-12-18T15:45:38;36.37;;;16.43;;
25810;SDS011;13645;52.460;13.910;2022-12-18T15:48:19;35.57;;;15.53;;
25810;SDS011;13645;52.460;13.910;2022-12-18T15:50:48;32.63;;;16.20;;
25810;SDS011;13645;52.460;13.910;2022-12-18T15:53:19;41.07;;;18.17;;
25810;SDS011;13645;52.460;13.910;2022-12-18T15:55:46;46.60;;;19.47;;
25810;SDS011;13645;52.460;13.910;2022-12-18T15:58:49;37.80;;;18.73;;
25810;SDS011;13645;52.460;13.910;2022-12-18T16:01:16;35.53;;;16.07;;
25810;SDS011;13645;52.460;13.910;2022-12-18T16:03:44;36.60;;;17.00;;
25810;SDS011;13645;52.460;13.910;2022-12-18T16:06:11;40.60;;;20.03;;
25810;SDS011;13645;52.460;13.910;2022-12-18T16:08:38;42.27;;;18.80;;
25810;SDS011;13645;52.460;13.910;2022-12-18T16:11:09;34.70;;;16.43;;
25810;SDS011;13645;52.460;13.910;2022-12-18T16:14:12;32.93;;;15.93;;
25810;SDS011;13645;52.460;13.910;2022-12-18T16:16:48;33.17;;;16.40;;
25810;SDS011;13645;52.460;13.910;2022-12-18T16:19:17;30.17;;;16.13;;
25810;SDS011;13645;52.460;13.910;2022-12-18T16:21:45;35.00;;;15.37;;
25810;SDS011;13645;52.460;13.910;2022-12-18T16:24:13;41.03;;;16.27;;
25810;SDS011;13645;52.460;13.910;2022-12-18T16:26:42;36.80;;;16.43;;
25810;SDS011;13645;52.460;13.910;2022-12-18T16:29:09;38.70;;;16.90;;
25810;SDS011;13645;52.460;13.910;2022-12-18T16:31:37;38.77;;;17.23;;
25810;SDS011;13645;52.460;13.910;2022-12-18T16:34:15;42.13;;;17.57;;
25810;SDS011;13645;52.460;13.910;2022-12-18T16:36:52;38.20;;;17.53;;
25810;SDS011;13645;52.460;13.910;2022-12-18T16:39:23;42.03;;;19.23;;
25810;SDS011;13645;52.460;13.910;2022-12-18T16:41:50;42.80;;;18.60;;
25810;SDS011;13645;52.460;13.910;2022-12-18T16:44:17;49.37;;;18.37;;
25810;SDS011;13645;52.460;13.910;2022-12-18T16:46:44;46.47;;;20.50;;